createdAt,value
2018-05-26T00:00:28.529Z,100762.31
2018-05-26T00:02:54.801Z,100758.59
2018-05-26T00:05:21.113Z,100759.72
2018-05-26T00:07:48.163Z,100762.75
2018-05-26T00:10:15.191Z,100759.86
2018-05-26T00:12:41.473Z,100758.73
2018-05-26T00:15:07.775Z,100761.49
2018-05-26T00:17:34.075Z,100758.88
2018-05-26T00:20:00.372Z,100763.98
2018-05-26T00:22:26.610Z,100764.41
2018-05-26T00:24:53.640Z,100758.20
2018-05-26T00:27:19.910Z,100756.82
2018-05-26T00:29:46.193Z,100760.40
2018-05-26T00:32:12.470Z,100756.52
2018-05-26T00:34:39.466Z,100757.77
2018-05-26T00:37:05.746Z,100760.26
2018-05-26T00:39:32.765Z,100760.55
2018-05-26T00:41:59.048Z,100768.27
2018-05-26T00:44:26.082Z,100765.65
2018-05-26T00:46:52.337Z,100758.75
2018-05-26T00:49:19.338Z,100766.88
2018-05-26T00:51:45.640Z,100768.53
2018-05-26T00:54:11.927Z,100777.88
2018-05-26T00:56:39.695Z,100768.52
2018-05-26T00:59:06.002Z,100775.39
2018-05-26T01:01:32.342Z,100772.22
2018-05-26T01:03:58.636Z,100768.52
2018-05-26T01:06:25.645Z,100759.70
2018-05-26T01:08:51.973Z,100759.27
2018-05-26T01:11:18.313Z,100761.11
2018-05-26T01:13:44.593Z,100760.84
2018-05-26T01:16:11.646Z,100754.17
2018-05-26T01:18:38.667Z,100753.38
2018-05-26T01:21:05.004Z,100749.94
2018-05-26T01:23:31.423Z,100751.67
2018-05-26T01:25:57.729Z,100745.06
2018-05-26T01:28:24.033Z,100747.70
2018-05-26T01:30:50.343Z,100747.40
2018-05-26T01:33:16.662Z,100750.83
2018-05-26T01:35:42.937Z,100745.41
2018-05-26T01:38:09.921Z,100742.36
2018-05-26T01:40:36.238Z,100743.21
2018-05-26T01:43:03.253Z,100745.39
2018-05-26T01:45:29.541Z,100743.89
2018-05-26T01:47:59.546Z,100739.62
2018-05-26T01:50:26.665Z,100743.29
2018-05-26T01:52:52.954Z,100746.36
2018-05-26T01:55:19.969Z,100746.02
2018-05-26T01:57:46.276Z,100748.78
2018-05-26T02:00:12.565Z,100744.64
2018-05-26T02:02:39.577Z,100738.13
2018-05-26T02:05:05.870Z,100740.47
2018-05-26T02:07:32.898Z,100739.81
2018-05-26T02:09:59.925Z,100748.00
2018-05-26T02:12:26.227Z,100744.92
2018-05-26T02:14:52.462Z,100748.65
2018-05-26T02:17:18.750Z,100740.75
2018-05-26T02:19:44.976Z,100756.88
2018-05-26T02:22:11.262Z,100754.26
2018-05-26T02:24:37.624Z,100763.05
2018-05-26T02:27:03.945Z,100763.88
2018-05-26T02:29:30.260Z,100758.87
2018-05-26T02:31:56.550Z,100761.69
2018-05-26T02:34:22.861Z,100762.79
2018-05-26T02:36:49.194Z,100763.75
2018-05-26T02:39:15.534Z,100762.75
2018-05-26T02:41:41.852Z,100761.54
2018-05-26T02:44:08.148Z,100761.13
2018-05-26T02:46:34.470Z,100767.11
2018-05-26T02:49:00.743Z,100763.52
2018-05-26T02:51:27.037Z,100760.62
2018-05-26T02:53:53.346Z,100759.05
2018-05-26T02:56:19.616Z,100761.11
2018-05-26T02:58:45.905Z,100765.06
2018-05-26T03:01:12.202Z,100773.20
2018-05-26T03:03:39.979Z,100767.45
2018-05-26T03:06:12.477Z,100772.29
2018-05-26T03:08:45.741Z,100768.50
2018-05-26T03:11:18.083Z,100773.01
2018-05-26T03:13:50.365Z,100775.84
2018-05-26T03:16:19.526Z,100779.75
2018-05-26T03:18:45.837Z,100776.84
2018-05-26T03:21:12.104Z,100775.01
2018-05-26T03:23:38.372Z,100777.22
2018-05-26T03:26:04.670Z,100776.12
2018-05-26T03:28:31.674Z,100777.04
2018-05-26T03:30:57.924Z,100783.06
2018-05-26T03:33:24.191Z,100784.84
2018-05-26T03:35:51.198Z,100784.42
2018-05-26T03:38:17.505Z,100787.68
2018-05-26T03:40:43.811Z,100793.47
2018-05-26T03:43:10.813Z,100790.57
2018-05-26T03:45:37.097Z,100785.80
2018-05-26T03:48:04.120Z,100793.94
2018-05-26T03:50:31.145Z,100795.52
2018-05-26T03:52:57.397Z,100798.47
2018-05-26T03:55:42.986Z,100800.53
2018-05-26T03:58:27.590Z,100810.33
2018-05-26T04:00:53.853Z,100807.38
2018-05-26T04:03:20.144Z,100811.93
2018-05-26T04:05:47.186Z,100812.11
2018-05-26T04:08:14.993Z,100809.49
2018-05-26T04:10:41.228Z,100805.83
2018-05-26T04:13:07.525Z,100812.73
2018-05-26T04:15:34.561Z,100811.21
2018-05-26T04:18:00.844Z,100805.75
2018-05-26T04:20:27.176Z,100807.04
2018-05-26T04:22:53.421Z,100801.44
2018-05-26T04:25:19.735Z,100805.34
2018-05-26T04:27:46.765Z,100805.94
2018-05-26T04:30:13.029Z,100805.11
2018-05-26T04:32:39.334Z,100821.20
2018-05-26T04:35:06.337Z,100818.86
2018-05-26T04:37:32.577Z,100824.29
2018-05-26T04:39:58.853Z,100822.84
2018-05-26T04:42:25.109Z,100828.69
2018-05-26T04:44:52.157Z,100829.41
2018-05-26T04:47:19.205Z,100826.45
2018-05-26T04:49:46.249Z,100825.10
2018-05-26T04:52:12.534Z,100827.34
2018-05-26T04:54:38.797Z,100829.19
2018-05-26T04:57:05.044Z,100827.91
2018-05-26T04:59:31.337Z,100828.44
2018-05-26T05:01:57.617Z,100831.09
2018-05-26T05:04:23.920Z,100830.83
2018-05-26T05:06:50.218Z,100836.82
2018-05-26T05:09:17.257Z,100826.50
2018-05-26T05:11:43.550Z,100833.31
2018-05-26T05:14:09.880Z,100828.77
2018-05-26T05:16:36.213Z,100831.62
2018-05-26T05:19:02.477Z,100834.34
2018-05-26T05:21:28.758Z,100835.09
2018-05-26T05:23:55.786Z,100833.64
2018-05-26T05:26:22.078Z,100830.36
2018-05-26T05:28:48.373Z,100839.34
2018-05-26T05:31:15.366Z,100843.63
2018-05-26T05:33:41.633Z,100842.02
2018-05-26T05:36:07.890Z,100836.91
2018-05-26T05:38:34.141Z,100841.70
2018-05-26T05:41:01.162Z,100848.28
2018-05-26T05:43:28.185Z,100848.95
2018-05-26T05:45:54.437Z,100855.38
2018-05-26T05:48:20.733Z,100850.72
2018-05-26T05:50:47.003Z,100858.36
2018-05-26T05:53:13.277Z,100855.83
2018-05-26T05:55:40.307Z,100857.31
2018-05-26T05:58:06.528Z,100867.09
2018-05-26T06:00:32.819Z,100860.78
2018-05-26T06:02:59.097Z,100866.36
2018-05-26T06:05:25.388Z,100862.16
2018-05-26T06:07:52.386Z,100857.55
2018-05-26T06:10:18.653Z,100860.25
2018-05-26T06:12:44.954Z,100854.69
2018-05-26T06:15:11.260Z,100860.93
2018-05-26T06:17:37.538Z,100861.61
2018-05-26T06:20:03.863Z,100869.02
2018-05-26T06:22:30.137Z,100864.80
2018-05-26T06:24:57.198Z,100869.17
2018-05-26T06:27:23.501Z,100865.66
2018-05-26T06:29:50.631Z,100865.69
2018-05-26T06:32:16.935Z,100872.47
2018-05-26T06:34:43.984Z,100871.15
2018-05-26T06:37:10.972Z,100867.45
2018-05-26T06:39:37.275Z,100867.70
2018-05-26T06:42:04.306Z,100865.39
2018-05-26T06:44:32.043Z,100866.81
2018-05-26T06:46:58.341Z,100863.25
2018-05-26T06:49:24.668Z,100864.98
2018-05-26T06:51:51.679Z,100863.90
2018-05-26T06:54:17.981Z,100861.41
2018-05-26T06:56:44.306Z,100862.81
2018-05-26T06:59:10.608Z,100861.91
2018-05-26T07:01:36.903Z,100854.99
2018-05-26T07:04:03.251Z,100850.96
2018-05-26T07:06:29.583Z,100850.30
2018-05-26T07:08:55.886Z,100853.52
2018-05-26T07:11:22.190Z,100845.92
2018-05-26T07:13:48.533Z,100846.76
2018-05-26T07:16:14.791Z,100846.18
2018-05-26T07:18:41.847Z,100843.31
2018-05-26T07:21:08.904Z,100847.92
2018-05-26T07:23:35.933Z,100845.78
2018-05-26T07:26:02.989Z,100843.97
2018-05-26T07:28:29.974Z,100845.20
2018-05-26T07:30:56.299Z,100841.62
2018-05-26T07:33:22.605Z,100844.57
2018-05-26T07:35:48.878Z,100843.98
2018-05-26T07:38:15.162Z,100844.93
2018-05-26T07:40:41.478Z,100842.39
2018-05-26T07:43:07.742Z,100840.28
2018-05-26T07:45:34.040Z,100846.59
2018-05-26T07:48:00.333Z,100845.13
2018-05-26T07:50:27.391Z,100849.25
2018-05-26T07:52:54.456Z,100851.64
2018-05-26T07:55:20.765Z,100858.88
2018-05-26T07:57:47.167Z,100861.78
2018-05-26T08:00:13.452Z,100860.39
2018-05-26T08:02:39.761Z,100863.78
2018-05-26T08:05:06.242Z,100856.02
2018-05-26T08:07:32.510Z,100857.42
2018-05-26T08:09:58.766Z,100857.62
2018-05-26T08:12:25.119Z,100861.97
2018-05-26T08:14:51.418Z,100862.61
2018-05-26T08:17:17.791Z,100867.63
2018-05-26T08:19:44.057Z,100868.42
2018-05-26T08:22:11.061Z,100870.41
2018-05-26T08:24:37.391Z,100867.73
2018-05-26T08:27:03.727Z,100867.31
2018-05-26T08:29:30.041Z,100872.09
2018-05-26T08:31:56.365Z,100877.63
2018-05-26T08:34:22.666Z,100876.64
2018-05-26T08:36:48.974Z,100869.94
2018-05-26T08:39:15.271Z,100867.55
2018-05-26T08:41:42.349Z,100865.50
2018-05-26T08:44:08.662Z,100867.42
2018-05-26T08:46:34.991Z,100871.71
2018-05-26T08:49:02.052Z,100873.53
2018-05-26T08:51:28.418Z,100877.44
2018-05-26T08:53:54.718Z,100876.34
2018-05-26T08:56:21.769Z,100871.08
2018-05-26T08:58:48.862Z,100873.28
2018-05-26T09:01:15.192Z,100874.70
2018-05-26T09:03:41.505Z,100873.88
2018-05-26T09:06:07.870Z,100868.78
2018-05-26T09:08:34.173Z,100872.33
2018-05-26T09:11:01.231Z,100867.61
2018-05-26T09:13:27.558Z,100874.20
2018-05-26T09:15:54.654Z,100868.52
2018-05-26T09:18:21.670Z,100869.42
2018-05-26T09:20:47.956Z,100865.88
2018-05-26T09:23:14.213Z,100866.13
2018-05-26T09:25:41.962Z,100863.67
2018-05-26T09:28:08.246Z,100862.02
2018-05-26T09:30:35.285Z,100857.37
2018-05-26T09:33:02.393Z,100857.37
2018-05-26T09:35:28.681Z,100861.78
2018-05-26T09:37:55.787Z,100859.36
2018-05-26T09:40:22.129Z,100861.78
2018-05-26T09:42:48.375Z,100863.26
2018-05-26T09:45:14.666Z,100860.48
2018-05-26T09:47:40.931Z,100856.42
2018-05-26T09:50:07.207Z,100850.28
2018-05-26T09:52:34.270Z,100852.61
2018-05-26T09:55:01.290Z,100844.86
2018-05-26T09:57:27.550Z,100843.06
2018-05-26T09:59:54.561Z,100840.73
2018-05-26T10:02:20.895Z,100844.67
2018-05-26T10:04:47.146Z,100844.02
2018-05-26T10:07:13.487Z,100846.91
2018-05-26T10:09:39.738Z,100843.55
2018-05-26T10:12:06.788Z,100841.13
2018-05-26T10:14:33.122Z,100842.30
2018-05-26T10:16:59.417Z,100843.27
2018-05-26T10:19:25.740Z,100853.90
2018-05-26T10:21:52.686Z,100838.13
2018-05-26T10:24:18.970Z,100842.28
2018-05-26T10:26:45.237Z,100845.83
2018-05-26T10:29:12.285Z,100838.78
2018-05-26T10:31:38.534Z,100836.02
2018-05-26T10:34:05.573Z,100829.29
2018-05-26T10:36:31.829Z,100828.01
2018-05-26T10:38:58.067Z,100827.15
2018-05-26T10:41:25.033Z,100824.70
2018-05-26T10:43:51.340Z,100822.81
2018-05-26T10:46:24.373Z,100820.05
2018-05-26T10:48:50.671Z,100819.48
2018-05-26T10:51:17.729Z,100821.52
2018-05-26T10:53:44.747Z,100826.44
2018-05-26T10:56:10.985Z,100836.48
2018-05-26T10:58:37.265Z,100827.34
2018-05-26T11:01:03.551Z,100825.34
2018-05-26T11:03:29.837Z,100819.61
2018-05-26T11:05:56.125Z,100818.62
2018-05-26T11:08:22.400Z,100824.19
2018-05-26T11:10:49.437Z,100820.07
2018-05-26T11:13:16.517Z,100821.43
2018-05-26T11:15:42.817Z,100821.34
2018-05-26T11:18:09.125Z,100814.31
2018-05-26T11:20:35.410Z,100811.50
2018-05-26T11:23:02.422Z,100812.33
2018-05-26T11:25:28.708Z,100810.55
2018-05-26T11:27:55.017Z,100808.29
2018-05-26T11:30:21.293Z,100811.65
2018-05-26T11:32:47.598Z,100807.32
2018-05-26T11:35:14.622Z,100816.28
2018-05-26T11:37:40.891Z,100811.53
2018-05-26T11:40:07.921Z,100808.72
2018-05-26T11:42:34.214Z,100806.29
2018-05-26T11:45:00.490Z,100804.27
2018-05-26T11:47:26.760Z,100799.16
2018-05-26T11:49:53.766Z,100803.67
2018-05-26T11:52:20.097Z,100801.52
2018-05-26T11:54:46.381Z,100797.95
2018-05-26T11:57:13.405Z,100797.94
2018-05-26T11:59:39.677Z,100798.72
2018-05-26T12:02:05.966Z,100796.91
2018-05-26T12:04:32.257Z,100801.92
2018-05-26T12:06:58.526Z,100809.34
2018-05-26T12:09:24.782Z,100801.22
2018-05-26T12:11:51.072Z,100802.12
2018-05-26T12:14:17.337Z,100799.84
2018-05-26T12:16:43.617Z,100796.80
2018-05-26T12:19:10.637Z,100800.45
2018-05-26T12:21:36.905Z,100802.91
2018-05-26T12:24:03.978Z,100804.92
2018-05-26T12:26:30.299Z,100801.89
2018-05-26T12:28:57.325Z,100803.92
2018-05-26T12:31:23.601Z,100806.16
2018-05-26T12:33:49.874Z,100806.80
2018-05-26T12:36:16.161Z,100811.19
2018-05-26T12:38:43.149Z,100807.53
2018-05-26T12:41:09.390Z,100804.44
2018-05-26T12:43:35.705Z,100808.07
2018-05-26T12:46:01.993Z,100800.66
2018-05-26T12:48:28.301Z,100803.94
2018-05-26T12:50:54.608Z,100791.91
2018-05-26T12:53:20.929Z,100796.23
2018-05-26T12:55:47.956Z,100789.22
2018-05-26T12:58:14.269Z,100795.67
2018-05-26T13:00:40.497Z,100795.97
2018-05-26T13:03:06.746Z,100784.91
2018-05-26T13:05:32.997Z,100787.64
2018-05-26T13:07:59.272Z,100788.95
2018-05-26T13:10:25.624Z,100781.05
2018-05-26T13:12:51.865Z,100782.18
2018-05-26T13:15:20.632Z,100782.95
2018-05-26T13:17:46.902Z,100779.09
2018-05-26T13:20:13.165Z,100778.63
2018-05-26T13:22:39.449Z,100781.30
2018-05-26T13:25:05.774Z,100779.47
2018-05-26T13:27:32.050Z,100774.41
2018-05-26T13:29:58.403Z,100774.00
2018-05-26T13:32:24.717Z,100772.17
2018-05-26T13:34:51.024Z,100772.81
2018-05-26T13:37:17.332Z,100763.84
2018-05-26T13:39:44.326Z,100763.44
2018-05-26T13:42:10.617Z,100756.43
2018-05-26T13:44:37.685Z,100766.77
2018-05-26T13:47:03.957Z,100764.33
2018-05-26T13:49:30.259Z,100761.84
2018-05-26T13:51:57.331Z,100765.23
2018-05-26T13:54:24.277Z,100765.00
2018-05-26T13:56:52.055Z,100774.34
2018-05-26T13:59:18.585Z,100765.02
2018-05-26T14:01:44.853Z,100760.58
2018-05-26T14:04:11.226Z,100771.70
2018-05-26T14:06:37.501Z,100768.56
2018-05-26T14:09:04.805Z,100757.28
2018-05-26T14:11:31.061Z,100765.41
2018-05-26T14:13:57.297Z,100765.48
2018-05-26T14:16:24.347Z,100764.67
2018-05-26T14:18:50.619Z,100764.62
2018-05-26T14:21:16.904Z,100761.38
2018-05-26T14:23:43.126Z,100755.16
2018-05-26T14:26:09.412Z,100760.61
2018-05-26T14:28:35.765Z,100753.25
2018-05-26T14:31:02.019Z,100750.38
2018-05-26T14:33:28.331Z,100735.35
2018-05-26T14:35:54.557Z,100739.42
2018-05-26T14:38:20.835Z,100748.94
2018-05-26T14:40:47.109Z,100745.28
2018-05-26T14:43:14.125Z,100752.78
2018-05-26T14:45:40.388Z,100746.66
2018-05-26T14:48:06.656Z,100747.32
2018-05-26T14:50:33.210Z,100751.23
2018-05-26T14:52:59.541Z,100756.17
2018-05-26T14:55:25.789Z,100744.64
2018-05-26T14:57:52.044Z,100742.59
2018-05-26T15:00:18.354Z,100735.37
2018-05-26T15:02:44.633Z,100736.70
2018-05-26T15:05:11.639Z,100739.91
2018-05-26T15:07:37.898Z,100738.95
2018-05-26T15:10:04.197Z,100733.02
2018-05-26T15:12:30.449Z,100734.34
2018-05-26T15:14:56.721Z,100732.42
2018-05-26T15:17:22.974Z,100730.91
2018-05-26T15:19:49.253Z,100729.83
2018-05-26T15:22:15.506Z,100728.73
2018-05-26T15:24:42.028Z,100733.73
2018-05-26T15:27:08.286Z,100735.36
2018-05-26T15:29:34.573Z,100731.63
2018-05-26T15:32:01.604Z,100725.90
2018-05-26T15:34:27.898Z,100726.56
2018-05-26T15:36:54.161Z,100729.33
2018-05-26T15:39:20.402Z,100727.58
2018-05-26T15:41:46.673Z,100730.52
2018-05-26T15:44:13.702Z,100726.25
2018-05-26T15:46:40.015Z,100720.35
2018-05-26T15:49:06.291Z,100725.93
2018-05-26T15:51:33.356Z,100722.11
2018-05-26T15:53:59.640Z,100720.39
2018-05-26T15:56:25.913Z,100717.81
2018-05-26T15:58:52.205Z,100720.46
2018-05-26T16:01:18.542Z,100714.91
2018-05-26T16:03:44.837Z,100710.23
2018-05-26T16:06:11.102Z,100712.39
2018-05-26T16:08:37.413Z,100711.80
2018-05-26T16:11:03.669Z,100711.09
2018-05-26T16:13:29.997Z,100720.14
2018-05-26T16:15:56.285Z,100719.22
2018-05-26T16:18:22.569Z,100719.19
2018-05-26T16:20:48.857Z,100722.51
2018-05-26T16:23:15.175Z,100713.75
2018-05-26T16:25:41.461Z,100712.83
2018-05-26T16:28:07.784Z,100713.30
2018-05-26T16:30:34.798Z,100721.28
2018-05-26T16:33:01.111Z,100722.02
2018-05-26T16:35:27.409Z,100721.00
2018-05-26T16:37:54.418Z,100715.16
2018-05-26T16:40:20.725Z,100718.00
2018-05-26T16:42:46.969Z,100717.59
2018-05-26T16:45:13.303Z,100719.88
2018-05-26T16:47:39.574Z,100719.94
2018-05-26T16:50:05.874Z,100720.78
2018-05-26T16:52:32.166Z,100722.05
2018-05-26T16:54:59.199Z,100719.27
2018-05-26T16:57:26.235Z,100716.86
2018-05-26T16:59:52.562Z,100720.01
2018-05-26T17:02:18.817Z,100720.14
2018-05-26T17:04:45.081Z,100718.92
2018-05-26T17:07:11.439Z,100719.20
2018-05-26T17:09:37.811Z,100723.34
2018-05-26T17:12:04.128Z,100721.92
2018-05-26T17:14:30.472Z,100724.31
2018-05-26T17:16:56.785Z,100724.42
2018-05-26T17:19:23.348Z,100725.08
2018-05-26T17:21:49.689Z,100724.91
2018-05-26T17:24:15.997Z,100724.58
2018-05-26T17:26:42.275Z,100718.97
2018-05-26T17:29:08.601Z,100723.62
2018-05-26T17:31:34.843Z,100721.47
2018-05-26T17:34:01.117Z,100716.20
2018-05-26T17:36:28.126Z,100712.78
2018-05-26T17:38:54.431Z,100713.30
2018-05-26T17:41:20.757Z,100723.05
2018-05-26T17:43:47.801Z,100715.42
2018-05-26T17:46:14.849Z,100720.10
2018-05-26T17:48:41.926Z,100710.27
2018-05-26T17:51:08.222Z,100713.05
2018-05-26T17:53:35.309Z,100713.79
2018-05-26T17:56:02.346Z,100704.77
2018-05-26T17:58:28.653Z,100705.83
2018-05-26T18:00:55.014Z,100710.16
2018-05-26T18:03:21.289Z,100706.13
2018-05-26T18:05:47.579Z,100710.00
2018-05-26T18:08:13.952Z,100714.20
2018-05-26T18:10:40.202Z,100719.91
2018-05-26T18:13:06.538Z,100716.19
2018-05-26T18:15:32.825Z,100724.89
2018-05-26T18:17:59.129Z,100725.72
2018-05-26T18:20:25.412Z,100717.86
2018-05-26T18:22:52.446Z,100719.98
2018-05-26T18:25:18.749Z,100722.16
2018-05-26T18:27:46.886Z,100725.77
2018-05-26T18:30:13.898Z,100729.02
2018-05-26T18:32:40.310Z,100727.00
2018-05-26T18:35:06.549Z,100735.76
2018-05-26T18:37:32.797Z,100736.91
2018-05-26T18:39:59.086Z,100736.14
2018-05-26T18:42:26.080Z,100738.13
2018-05-26T18:44:52.462Z,100731.47
2018-05-26T18:47:18.881Z,100734.95
2018-05-26T18:49:45.229Z,100739.58
2018-05-26T18:52:11.489Z,100739.02
2018-05-26T18:54:37.781Z,100748.09
2018-05-26T18:57:04.060Z,100748.90
2018-05-26T18:59:31.123Z,100752.11
2018-05-26T19:01:57.532Z,100756.05
2018-05-26T19:04:23.780Z,100753.11
2018-05-26T19:06:50.836Z,100755.55
2018-05-26T19:09:17.893Z,100757.06
2018-05-26T19:11:44.985Z,100761.56
2018-05-26T19:14:11.284Z,100760.23
2018-05-26T19:16:38.337Z,100761.56
2018-05-26T19:19:04.649Z,100762.37
2018-05-26T19:21:31.951Z,100762.92
2018-05-26T19:23:58.282Z,100765.31
2018-05-26T19:26:24.582Z,100759.79
2018-05-26T19:28:50.898Z,100760.38
2018-05-26T19:31:17.197Z,100765.63
2018-05-26T19:33:43.636Z,100772.95
2018-05-26T19:36:09.932Z,100770.05
2018-05-26T19:38:36.237Z,100772.84
2018-05-26T19:41:02.550Z,100772.06
2018-05-26T19:43:28.830Z,100774.95
2018-05-26T19:45:55.133Z,100775.34
2018-05-26T19:48:21.414Z,100777.62
2018-05-26T19:50:47.697Z,100787.56
2018-05-26T19:53:14.013Z,100791.37
2018-05-26T19:55:40.309Z,100792.82
2018-05-26T19:58:07.414Z,100794.05
2018-05-26T20:00:33.702Z,100800.19
2018-05-26T20:02:59.980Z,100799.78
2018-05-26T20:05:26.325Z,100794.70
2018-05-26T20:07:52.613Z,100793.72
2018-05-26T20:10:18.899Z,100791.98
2018-05-26T20:12:45.200Z,100796.19
2018-05-26T20:15:11.474Z,100801.47
2018-05-26T20:17:37.838Z,100805.74
2018-05-26T20:20:04.157Z,100798.12
2018-05-26T20:22:30.424Z,100801.84
2018-05-26T20:24:56.686Z,100805.17
2018-05-26T20:27:24.080Z,100807.34
2018-05-26T20:29:50.381Z,100798.88
2018-05-26T20:32:17.439Z,100799.05
2018-05-26T20:34:43.768Z,100797.11
2018-05-26T20:37:10.074Z,100794.45
2018-05-26T20:39:36.395Z,100791.43
2018-05-26T20:42:02.737Z,100800.95
2018-05-26T20:44:28.962Z,100794.72
2018-05-26T20:46:55.233Z,100801.38
2018-05-26T20:49:21.545Z,100802.11
2018-05-26T20:51:47.841Z,100803.56
2018-05-26T20:54:14.094Z,100813.17
2018-05-26T20:56:40.427Z,100810.78
2018-05-26T20:59:06.721Z,100813.23
2018-05-26T21:01:33.036Z,100805.27
2018-05-26T21:03:59.338Z,100810.73
2018-05-26T21:06:25.672Z,100815.63
2018-05-26T21:08:52.017Z,100820.68
2018-05-26T21:11:18.265Z,100825.61
2018-05-26T21:13:44.599Z,100836.13
2018-05-26T21:16:10.886Z,100835.08
2018-05-26T21:18:37.131Z,100835.54
2018-05-26T21:21:03.427Z,100837.92
2018-05-26T21:23:29.699Z,100836.05
2018-05-26T21:25:56.759Z,100839.09
2018-05-26T21:28:23.017Z,100835.79
2018-05-26T21:30:49.302Z,100834.76
2018-05-26T21:33:15.560Z,100836.77
2018-05-26T21:35:42.555Z,100833.42
2018-05-26T21:38:08.857Z,100832.70
2018-05-26T21:40:35.187Z,100827.27
2018-05-26T21:43:02.194Z,100827.95
2018-05-26T21:45:28.500Z,100835.01
2018-05-26T21:47:54.806Z,100831.38
2018-05-26T21:50:21.870Z,100827.97
2018-05-26T21:52:48.187Z,100830.53
2018-05-26T21:55:14.488Z,100827.11
2018-05-26T21:57:40.798Z,100832.03
2018-05-26T22:00:07.034Z,100832.88
2018-05-26T22:02:33.335Z,100829.95
2018-05-26T22:04:59.670Z,100831.20
2018-05-26T22:07:26.689Z,100822.66
2018-05-26T22:09:52.950Z,100821.14
2018-05-26T22:12:20.005Z,100822.80
2018-05-26T22:14:47.017Z,100822.23
2018-05-26T22:17:13.345Z,100830.20
2018-05-26T22:19:39.673Z,100828.42
2018-05-26T22:22:05.941Z,100822.63
2018-05-26T22:24:32.242Z,100818.70
2018-05-26T22:26:58.521Z,100822.05
2018-05-26T22:29:24.790Z,100814.07
2018-05-26T22:31:51.829Z,100817.90
2018-05-26T22:34:18.853Z,100820.23
2018-05-26T22:36:45.134Z,100818.47
2018-05-26T22:39:11.530Z,100815.28
2018-05-26T22:41:37.798Z,100821.28
2018-05-26T22:44:04.827Z,100821.21
2018-05-26T22:46:31.136Z,100819.84
2018-05-26T22:48:57.417Z,100812.04
2018-05-26T22:51:24.405Z,100805.25
2018-05-26T22:53:50.699Z,100791.19
2018-05-26T22:56:17.782Z,100783.66
2018-05-26T22:58:44.117Z,100789.55
2018-05-26T23:01:10.394Z,100788.50
2018-05-26T23:03:36.669Z,100788.84
2018-05-26T23:06:03.069Z,100794.91
2018-05-26T23:08:29.381Z,100803.99
2018-05-26T23:10:55.718Z,100801.28
2018-05-26T23:13:22.010Z,100807.75
2018-05-26T23:15:48.846Z,100808.64
2018-05-26T23:18:15.207Z,100811.55
2018-05-26T23:20:42.253Z,100808.09
2018-05-26T23:23:09.301Z,100807.39
2018-05-26T23:25:36.354Z,100811.05
2018-05-26T23:28:03.418Z,100807.75
2018-05-26T23:30:30.460Z,100808.37
2018-05-26T23:32:57.484Z,100801.20
2018-05-26T23:35:23.774Z,100807.27
2018-05-26T23:37:50.084Z,100808.78
2018-05-26T23:40:17.134Z,100803.97
2018-05-26T23:42:43.398Z,100804.42
2018-05-26T23:45:09.761Z,100801.36
2018-05-26T23:47:36.024Z,100807.08
2018-05-26T23:50:02.334Z,100807.41
2018-05-26T23:52:28.642Z,100803.45
2018-05-26T23:54:54.952Z,100811.44
2018-05-26T23:57:22.027Z,100805.78
2018-05-26T23:59:49.042Z,100801.18
